sensor_id;sensor_type;location;lat;lon;timestamp;temperature;humidity
13464;DHT22;6804;48.774;9.174;2022-12-18T00:00:06;-3.20;99.90
13464;DHT22;6804;48.774;9.174;2022-12-18T00:02:34;-3.20;99.90
13464;DHT22;6804;48.774;9.174;2022-12-18T00:05:04;-3.20;99.90
13464;DHT22;6804;48.774;9.174;2022-12-18T00:07:35;-3.20;99.90
13464;DHT22;6804;48.774;9.174;2022-12-18T00:10:07;-3.20;99.90
13464;DHT22;6804;48.774;9.174;2022-12-18T00:12:35;-3.30;99.90
13464;DHT22;6804;48.774;9.174;2022-12-18T00:15:03;-3.30;99.90
13464;DHT22;6804;48.774;9.174;2022-12-18T00:17:30;-3.40;99.90
13464;DHT22;6804;48.774;9.174;2022-12-18T00:19:58;-3.40;99.90
13464;DHT22;6804;48.774;9.174;2022-12-18T00:22:25;-3.40;99.90
13464;DHT22;6804;48.774;9.174;2022-12-18T00:24:57;-3.40;99.90
13464;DHT22;6804;48.774;9.174;2022-12-18T00:27:24;-3.30;99.90
13464;DHT22;6804;48.774;9.174;2022-12-18T00:29:52;-3.40;99.90
13464;DHT22;6804;48.774;9.174;2022-12-18T00:32:19;-3.40;99.90
13464;DHT22;6804;48.774;9.174;2022-12-18T00:34:50;-3.50;99.90
13464;DHT22;6804;48.774;9.174;2022-12-18T00:37:17;-3.50;99.90
13464;DHT22;6804;48.774;9.174;2022-12-18T00:39:48;-3.60;99.90
13464;DHT22;6804;48.774;9.174;2022-12-18T00:42:17;-3.60;99.90
13464;DHT22;6804;48.774;9.174;2022-12-18T00:45:02;-3.70;99.90
13464;DHT22;6804;48.774;9.174;2022-12-18T00:47:29;-3.70;99.90
13464;DHT22;6804;48.774;9.174;2022-12-18T00:49:57;-3.80;99.90
13464;DHT22;6804;48.774;9.174;2022-12-18T00:52:26;-3.80;99.90
13464;DHT22;6804;48.774;9.174;2022-12-18T00:54:57;-3.70;99.90
13464;DHT22;6804;48.774;9.174;2022-12-18T00:57:28;-3.60;99.90
13464;DHT22;6804;48.774;9.174;2022-12-18T00:59:57;-3.50;99.90
13464;DHT22;6804;48.774;9.174;2022-12-18T01:02:25;-3.50;99.90
13464;DHT22;6804;48.774;9.174;2022-12-18T01:04:52;-3.60;99.90
13464;DHT22;6804;48.774;9.174;2022-12-18T01:07:23;-3.70;99.90
13464;DHT22;6804;48.774;9.174;2022-12-18T01:09:51;-3.80;99.90
13464;DHT22;6804;48.774;9.174;2022-12-18T01:12:18;-3.90;99.90
13464;DHT22;6804;48.774;9.174;2022-12-18T01:14:47;-4.00;99.90
13464;DHT22;6804;48.774;9.174;2022-12-18T01:17:15;-4.00;99.90
13464;DHT22;6804;48.774;9.174;2022-12-18T01:19:42;-3.80;99.90
13464;DHT22;6804;48.774;9.174;2022-12-18T01:22:09;-3.70;99.90
13464;DHT22;6804;48.774;9.174;2022-12-18T01:24:37;-3.60;99.90
13464;DHT22;6804;48.774;9.174;2022-12-18T01:27:04;-3.50;99.90
13464;DHT22;6804;48.774;9.174;2022-12-18T01:29:37;-3.30;99.90
13464;DHT22;6804;48.774;9.174;2022-12-18T01:32:06;-3.20;99.90
13464;DHT22;6804;48.774;9.174;2022-12-18T01:34:35;-3.20;99.90
13464;DHT22;6804;48.774;9.174;2022-12-18T01:37:05;-3.10;99.90
13464;DHT22;6804;48.774;9.174;2022-12-18T01:39:36;-3.10;99.90
13464;DHT22;6804;48.774;9.174;2022-12-18T01:42:10;-3.10;99.90
13464;DHT22;6804;48.774;9.174;2022-12-18T01:45:06;-3.10;99.90
13464;DHT22;6804;48.774;9.174;2022-12-18T01:47:48;-3.20;99.90
13464;DHT22;6804;48.774;9.174;2022-12-18T01:50:19;-3.10;99.90
13464;DHT22;6804;48.774;9.174;2022-12-18T01:52:49;-3.10;99.90
13464;DHT22;6804;48.774;9.174;2022-12-18T01:55:19;-3.00;99.90
13464;DHT22;6804;48.774;9.174;2022-12-18T01:57:49;-3.00;99.90
13464;DHT22;6804;48.774;9.174;2022-12-18T02:00:22;-3.00;99.90
13464;DHT22;6804;48.774;9.174;2022-12-18T02:02:53;-3.00;99.90
13464;DHT22;6804;48.774;9.174;2022-12-18T02:05:33;-3.20;99.90
13464;DHT22;6804;48.774;9.174;2022-12-18T02:08:09;-3.20;99.90
13464;DHT22;6804;48.774;9.174;2022-12-18T02:10:44;-3.20;99.90
13464;DHT22;6804;48.774;9.174;2022-12-18T02:13:19;-3.30;99.90
13464;DHT22;6804;48.774;9.174;2022-12-18T02:15:54;-3.40;99.90
13464;DHT22;6804;48.774;9.174;2022-12-18T02:18:32;-3.30;99.90
13464;DHT22;6804;48.774;9.174;2022-12-18T02:21:04;-3.30;99.90
13464;DHT22;6804;48.774;9.174;2022-12-18T02:23:47;-3.30;99.90
13464;DHT22;6804;48.774;9.174;2022-12-18T02:26:23;-3.30;99.90
13464;DHT22;6804;48.774;9.174;2022-12-18T02:29:00;-3.30;99.90
13464;DHT22;6804;48.774;9.174;2022-12-18T02:31:34;-3.40;99.90
13464;DHT22;6804;48.774;9.174;2022-12-18T02:34:11;-3.40;99.90
13464;DHT22;6804;48.774;9.174;2022-12-18T02:36:41;-3.50;99.90
13464;DHT22;6804;48.774;9.174;2022-12-18T02:39:11;-3.40;99.90
13464;DHT22;6804;48.774;9.174;2022-12-18T02:41:40;-3.30;99.90
13464;DHT22;6804;48.774;9.174;2022-12-18T02:44:10;-3.20;99.90
13464;DHT22;6804;48.774;9.174;2022-12-18T02:46:40;-3.30;99.90
13464;DHT22;6804;48.774;9.174;2022-12-18T02:49:26;-3.20;99.90
13464;DHT22;6804;48.774;9.174;2022-12-18T02:52:01;-3.20;99.90
13464;DHT22;6804;48.774;9.174;2022-12-18T02:54:47;-3.20;99.90
13464;DHT22;6804;48.774;9.174;2022-12-18T02:57:23;-3.30;99.90
13464;DHT22;6804;48.774;9.174;2022-12-18T02:59:58;-3.40;99.90
13464;DHT22;6804;48.774;9.174;2022-12-18T03:02:33;-3.40;99.90
13464;DHT22;6804;48.774;9.174;2022-12-18T03:05:07;-3.50;99.90
13464;DHT22;6804;48.774;9.174;2022-12-18T03:07:41;-3.60;99.90
13464;DHT22;6804;48.774;9.174;2022-12-18T03:10:14;-3.60;99.90
13464;DHT22;6804;48.774;9.174;2022-12-18T03:12:49;-3.60;99.90
13464;DHT22;6804;48.774;9.174;2022-12-18T03:15:21;-3.60;99.90
13464;DHT22;6804;48.774;9.174;2022-12-18T03:17:55;-3.50;99.90
13464;DHT22;6804;48.774;9.174;2022-12-18T03:20:23;-3.40;99.90
13464;DHT22;6804;48.774;9.174;2022-12-18T03:22:58;-3.30;99.90
13464;DHT22;6804;48.774;9.174;2022-12-18T03:25:27;-3.30;99.90
13464;DHT22;6804;48.774;9.174;2022-12-18T03:27:58;-3.30;99.90
13464;DHT22;6804;48.774;9.174;2022-12-18T03:30:28;-3.20;99.90
13464;DHT22;6804;48.774;9.174;2022-12-18T03:33:04;-3.20;99.90
13464;DHT22;6804;48.774;9.174;2022-12-18T03:35:37;-3.20;99.90
13464;DHT22;6804;48.774;9.174;2022-12-18T03:38:07;-3.20;99.90
13464;DHT22;6804;48.774;9.174;2022-12-18T03:40:45;-3.30;99.90
13464;DHT22;6804;48.774;9.174;2022-12-18T03:43:23;-3.20;99.90
13464;DHT22;6804;48.774;9.174;2022-12-18T03:46:03;-3.30;99.90
13464;DHT22;6804;48.774;9.174;2022-12-18T03:48:34;-3.40;99.90
13464;DHT22;6804;48.774;9.174;2022-12-18T03:51:07;-3.40;99.90
13464;DHT22;6804;48.774;9.174;2022-12-18T03:53:43;-3.40;99.90
13464;DHT22;6804;48.774;9.174;2022-12-18T03:59:00;-3.20;99.90
13464;DHT22;6804;48.774;9.174;2022-12-18T04:01:33;-3.10;99.90
13464;DHT22;6804;48.774;9.174;2022-12-18T04:04:01;-3.10;99.90
13464;DHT22;6804;48.774;9.174;2022-12-18T04:06:29;-3.10;99.90
13464;DHT22;6804;48.774;9.174;2022-12-18T04:08:58;-3.10;99.90
13464;DHT22;6804;48.774;9.174;2022-12-18T04:11:32;-3.10;99.90
13464;DHT22;6804;48.774;9.174;2022-12-18T04:14:03;-3.20;99.90
13464;DHT22;6804;48.774;9.174;2022-12-18T04:16:31;-3.40;99.90
13464;DHT22;6804;48.774;9.174;2022-12-18T04:19:00;-3.50;99.90
13464;DHT22;6804;48.774;9.174;2022-12-18T04:21:33;-3.50;99.90
13464;DHT22;6804;48.774;9.174;2022-12-18T04:24:00;-3.50;99.90
13464;DHT22;6804;48.774;9.174;2022-12-18T04:26:28;-3.60;99.90
13464;DHT22;6804;48.774;9.174;2022-12-18T04:29:00;-3.70;99.90
13464;DHT22;6804;48.774;9.174;2022-12-18T04:31:28;-4.00;99.90
13464;DHT22;6804;48.774;9.174;2022-12-18T04:33:55;-4.10;99.90
13464;DHT22;6804;48.774;9.174;2022-12-18T04:36:23;-4.20;99.90
13464;DHT22;6804;48.774;9.174;2022-12-18T04:38:50;-4.20;99.90
13464;DHT22;6804;48.774;9.174;2022-12-18T04:41:17;-4.20;99.90
13464;DHT22;6804;48.774;9.174;2022-12-18T04:43:45;-4.10;99.90
13464;DHT22;6804;48.774;9.174;2022-12-18T04:46:12;-4.10;99.90
13464;DHT22;6804;48.774;9.174;2022-12-18T04:48:41;-4.10;99.90
13464;DHT22;6804;48.774;9.174;2022-12-18T04:51:08;-4.20;99.90
13464;DHT22;6804;48.774;9.174;2022-12-18T04:53:36;-4.30;99.90
13464;DHT22;6804;48.774;9.174;2022-12-18T04:56:05;-4.20;99.90
13464;DHT22;6804;48.774;9.174;2022-12-18T04:58:32;-4.20;99.90
13464;DHT22;6804;48.774;9.174;2022-12-18T05:00:59;-4.20;99.90
13464;DHT22;6804;48.774;9.174;2022-12-18T05:03:30;-4.30;99.90
13464;DHT22;6804;48.774;9.174;2022-12-18T05:05:59;-4.30;99.90
13464;DHT22;6804;48.774;9.174;2022-12-18T05:08:27;-4.40;99.90
13464;DHT22;6804;48.774;9.174;2022-12-18T05:11:07;-4.30;99.90
13464;DHT22;6804;48.774;9.174;2022-12-18T05:13:43;-4.20;99.90
13464;DHT22;6804;48.774;9.174;2022-12-18T05:16:11;-4.20;99.90
13464;DHT22;6804;48.774;9.174;2022-12-18T05:18:42;-4.20;99.90
13464;DHT22;6804;48.774;9.174;2022-12-18T05:21:11;-4.30;99.90
13464;DHT22;6804;48.774;9.174;2022-12-18T05:23:38;-4.30;99.90
13464;DHT22;6804;48.774;9.174;2022-12-18T05:26:16;-4.30;99.90
13464;DHT22;6804;48.774;9.174;2022-12-18T05:28:44;-4.30;99.90
13464;DHT22;6804;48.774;9.174;2022-12-18T05:31:11;-4.40;99.90
13464;DHT22;6804;48.774;9.174;2022-12-18T05:33:43;-4.30;99.90
13464;DHT22;6804;48.774;9.174;2022-12-18T05:36:14;-4.30;99.90
13464;DHT22;6804;48.774;9.174;2022-12-18T05:38:44;-4.20;99.90
13464;DHT22;6804;48.774;9.174;2022-12-18T05:41:12;-4.10;99.90
13464;DHT22;6804;48.774;9.174;2022-12-18T05:43:44;-4.20;99.90
13464;DHT22;6804;48.774;9.174;2022-12-18T05:46:13;-4.20;99.90
13464;DHT22;6804;48.774;9.174;2022-12-18T05:48:41;-4.10;99.90
13464;DHT22;6804;48.774;9.174;2022-12-18T05:51:15;-4.10;99.90
13464;DHT22;6804;48.774;9.174;2022-12-18T05:53:43;-4.10;99.90
13464;DHT22;6804;48.774;9.174;2022-12-18T05:56:13;-4.20;99.90
13464;DHT22;6804;48.774;9.174;2022-12-18T05:58:40;-4.20;99.90
13464;DHT22;6804;48.774;9.174;2022-12-18T06:01:12;-4.30;99.90
13464;DHT22;6804;48.774;9.174;2022-12-18T06:03:39;-4.30;99.90
13464;DHT22;6804;48.774;9.174;2022-12-18T06:06:15;-4.20;99.90
13464;DHT22;6804;48.774;9.174;2022-12-18T06:08:43;-4.20;99.90
13464;DHT22;6804;48.774;9.174;2022-12-18T06:11:10;-4.10;99.90
13464;DHT22;6804;48.774;9.174;2022-12-18T06:13:37;-4.20;99.90
13464;DHT22;6804;48.774;9.174;2022-12-18T06:16:06;-4.30;99.90
13464;DHT22;6804;48.774;9.174;2022-12-18T06:18:34;-4.40;99.90
13464;DHT22;6804;48.774;9.174;2022-12-18T06:21:01;-4.50;99.90
13464;DHT22;6804;48.774;9.174;2022-12-18T06:23:33;-4.50;99.90
13464;DHT22;6804;48.774;9.174;2022-12-18T06:26:06;-4.60;99.90
13464;DHT22;6804;48.774;9.174;2022-12-18T06:28:35;-4.80;99.90
13464;DHT22;6804;48.774;9.174;2022-12-18T06:31:03;-4.80;99.90
13464;DHT22;6804;48.774;9.174;2022-12-18T06:33:31;-4.80;99.90
13464;DHT22;6804;48.774;9.174;2022-12-18T06:36:03;-4.90;99.90
13464;DHT22;6804;48.774;9.174;2022-12-18T06:38:36;-4.90;99.90
13464;DHT22;6804;48.774;9.174;2022-12-18T06:41:06;-4.90;99.90
13464;DHT22;6804;48.774;9.174;2022-12-18T06:43:36;-4.80;99.90
13464;DHT22;6804;48.774;9.174;2022-12-18T06:46:04;-4.70;99.90
13464;DHT22;6804;48.774;9.174;2022-12-18T06:48:32;-4.70;99.90
13464;DHT22;6804;48.774;9.174;2022-12-18T06:50:59;-4.60;99.90
13464;DHT22;6804;48.774;9.174;2022-12-18T06:53:26;-4.70;99.90
13464;DHT22;6804;48.774;9.174;2022-12-18T06:56:06;-4.80;99.90
13464;DHT22;6804;48.774;9.174;2022-12-18T06:58:37;-4.70;99.90
13464;DHT22;6804;48.774;9.174;2022-12-18T07:01:08;-4.60;99.90
13464;DHT22;6804;48.774;9.174;2022-12-18T07:03:36;-4.60;99.90
13464;DHT22;6804;48.774;9.174;2022-12-18T07:06:11;-4.60;99.90
13464;DHT22;6804;48.774;9.174;2022-12-18T07:08:40;-4.70;99.90
13464;DHT22;6804;48.774;9.174;2022-12-18T07:11:08;-4.70;99.90
13464;DHT22;6804;48.774;9.174;2022-12-18T07:13:36;-4.80;99.90
13464;DHT22;6804;48.774;9.174;2022-12-18T07:16:12;-4.90;99.90
13464;DHT22;6804;48.774;9.174;2022-12-18T07:18:42;-4.80;99.90
13464;DHT22;6804;48.774;9.174;2022-12-18T07:21:14;-4.80;99.90
13464;DHT22;6804;48.774;9.174;2022-12-18T07:23:42;-5.00;99.90
13464;DHT22;6804;48.774;9.174;2022-12-18T07:26:12;-5.10;99.90
13464;DHT22;6804;48.774;9.174;2022-12-18T07:28:45;-5.10;99.90
13464;DHT22;6804;48.774;9.174;2022-12-18T07:31:16;-5.10;99.90
13464;DHT22;6804;48.774;9.174;2022-12-18T07:33:44;-5.10;99.90
13464;DHT22;6804;48.774;9.174;2022-12-18T07:36:13;-5.10;99.90
13464;DHT22;6804;48.774;9.174;2022-12-18T07:38:44;-5.20;99.90
13464;DHT22;6804;48.774;9.174;2022-12-18T07:41:15;-5.10;99.90
13464;DHT22;6804;48.774;9.174;2022-12-18T07:43:44;-5.10;99.90
13464;DHT22;6804;48.774;9.174;2022-12-18T07:46:13;-5.00;99.90
13464;DHT22;6804;48.774;9.174;2022-12-18T07:48:42;-5.00;99.90
13464;DHT22;6804;48.774;9.174;2022-12-18T07:51:09;-5.10;99.90
13464;DHT22;6804;48.774;9.174;2022-12-18T07:53:39;-5.20;99.90
13464;DHT22;6804;48.774;9.174;2022-12-18T07:56:08;-5.10;99.90
13464;DHT22;6804;48.774;9.174;2022-12-18T07:58:40;-5.20;99.90
13464;DHT22;6804;48.774;9.174;2022-12-18T08:01:09;-5.10;99.90
13464;DHT22;6804;48.774;9.174;2022-12-18T08:03:40;-5.10;99.90
13464;DHT22;6804;48.774;9.174;2022-12-18T08:06:09;-5.00;99.90
13464;DHT22;6804;48.774;9.174;2022-12-18T08:08:36;-4.90;99.90
13464;DHT22;6804;48.774;9.174;2022-12-18T08:11:04;-4.70;99.90
13464;DHT22;6804;48.774;9.174;2022-12-18T08:13:36;-4.70;99.90
13464;DHT22;6804;48.774;9.174;2022-12-18T08:16:10;-4.60;99.90
13464;DHT22;6804;48.774;9.174;2022-12-18T08:18:38;-4.50;99.90
13464;DHT22;6804;48.774;9.174;2022-12-18T08:21:08;-4.50;99.90
13464;DHT22;6804;48.774;9.174;2022-12-18T08:23:36;-4.60;99.90
13464;DHT22;6804;48.774;9.174;2022-12-18T08:26:03;-4.60;99.90
13464;DHT22;6804;48.774;9.174;2022-12-18T08:28:33;-4.70;99.90
13464;DHT22;6804;48.774;9.174;2022-12-18T08:31:00;-4.60;99.90
13464;DHT22;6804;48.774;9.174;2022-12-18T08:33:32;-4.60;99.90
13464;DHT22;6804;48.774;9.174;2022-12-18T08:36:00;-4.50;99.90
13464;DHT22;6804;48.774;9.174;2022-12-18T08:38:32;-4.50;99.90
13464;DHT22;6804;48.774;9.174;2022-12-18T08:40:59;-4.50;99.90
13464;DHT22;6804;48.774;9.174;2022-12-18T08:43:29;-4.40;99.90
13464;DHT22;6804;48.774;9.174;2022-12-18T08:46:16;-4.40;99.90
13464;DHT22;6804;48.774;9.174;2022-12-18T08:48:45;-4.30;99.90
13464;DHT22;6804;48.774;9.174;2022-12-18T08:51:15;-4.20;99.90
13464;DHT22;6804;48.774;9.174;2022-12-18T08:53:48;-4.00;99.90
13464;DHT22;6804;48.774;9.174;2022-12-18T08:56:18;-3.90;99.90
13464;DHT22;6804;48.774;9.174;2022-12-18T08:58:46;-3.70;99.90
13464;DHT22;6804;48.774;9.174;2022-12-18T09:01:16;-3.60;99.90
13464;DHT22;6804;48.774;9.174;2022-12-18T09:03:49;-3.70;99.90
13464;DHT22;6804;48.774;9.174;2022-12-18T09:06:19;-3.60;99.90
13464;DHT22;6804;48.774;9.174;2022-12-18T09:08:49;-3.50;99.90
13464;DHT22;6804;48.774;9.174;2022-12-18T09:11:20;-3.40;99.90
13464;DHT22;6804;48.774;9.174;2022-12-18T09:13:51;-3.40;99.90
13464;DHT22;6804;48.774;9.174;2022-12-18T09:16:23;-3.30;99.90
13464;DHT22;6804;48.774;9.174;2022-12-18T09:18:52;-3.40;99.90
13464;DHT22;6804;48.774;9.174;2022-12-18T09:21:25;-3.60;99.90
13464;DHT22;6804;48.774;9.174;2022-12-18T09:23:54;-3.60;99.90
13464;DHT22;6804;48.774;9.174;2022-12-18T09:26:24;-3.80;99.90
13464;DHT22;6804;48.774;9.174;2022-12-18T09:28:52;-3.80;99.90
13464;DHT22;6804;48.774;9.174;2022-12-18T09:31:20;-3.90;99.90
13464;DHT22;6804;48.774;9.174;2022-12-18T09:33:53;-4.00;99.90
13464;DHT22;6804;48.774;9.174;2022-12-18T09:36:21;-4.00;99.90
13464;DHT22;6804;48.774;9.174;2022-12-18T09:38:51;-3.90;99.90
13464;DHT22;6804;48.774;9.174;2022-12-18T09:41:34;-3.80;99.90
13464;DHT22;6804;48.774;9.174;2022-12-18T09:44:16;-3.50;99.90
13464;DHT22;6804;48.774;9.174;2022-12-18T09:46:48;-3.20;99.90
13464;DHT22;6804;48.774;9.174;2022-12-18T09:49:24;-3.00;99.90
13464;DHT22;6804;48.774;9.174;2022-12-18T09:52:04;-3.00;99.90
13464;DHT22;6804;48.774;9.174;2022-12-18T09:54:39;-3.00;99.90
13464;DHT22;6804;48.774;9.174;2022-12-18T09:57:14;-3.10;99.90
13464;DHT22;6804;48.774;9.174;2022-12-18T09:59:44;-3.10;99.90
13464;DHT22;6804;48.774;9.174;2022-12-18T10:02:15;-3.00;99.90
13464;DHT22;6804;48.774;9.174;2022-12-18T10:04:47;-2.80;99.90
13464;DHT22;6804;48.774;9.174;2022-12-18T10:07:22;-2.60;99.90
13464;DHT22;6804;48.774;9.174;2022-12-18T10:09:59;-2.50;99.90
13464;DHT22;6804;48.774;9.174;2022-12-18T10:12:32;-2.40;99.90
13464;DHT22;6804;48.774;9.174;2022-12-18T10:15:13;-2.20;99.90
13464;DHT22;6804;48.774;9.174;2022-12-18T10:17:50;-2.00;99.90
13464;DHT22;6804;48.774;9.174;2022-12-18T10:20:24;-1.90;99.90
13464;DHT22;6804;48.774;9.174;2022-12-18T10:23:04;-1.80;99.90
13464;DHT22;6804;48.774;9.174;2022-12-18T10:25:43;-1.80;99.90
13464;DHT22;6804;48.774;9.174;2022-12-18T10:28:15;-1.80;99.90
13464;DHT22;6804;48.774;9.174;2022-12-18T10:30:43;-1.70;99.90
13464;DHT22;6804;48.774;9.174;2022-12-18T10:33:12;-1.60;99.90
13464;DHT22;6804;48.774;9.174;2022-12-18T10:35:48;-1.60;99.90
13464;DHT22;6804;48.774;9.174;2022-12-18T10:38:25;-1.40;99.90
13464;DHT22;6804;48.774;9.174;2022-12-18T10:40:54;-1.30;99.90
13464;DHT22;6804;48.774;9.174;2022-12-18T10:43:26;-1.10;99.90
13464;DHT22;6804;48.774;9.174;2022-12-18T10:46:18;-1.00;99.90
13464;DHT22;6804;48.774;9.174;2022-12-18T10:48:53;-0.90;99.90
13464;DHT22;6804;48.774;9.174;2022-12-18T10:51:28;-0.80;99.90
13464;DHT22;6804;48.774;9.174;2022-12-18T10:53:57;-0.70;99.90
13464;DHT22;6804;48.774;9.174;2022-12-18T10:56:30;-0.60;99.90
13464;DHT22;6804;48.774;9.174;2022-12-18T10:59:04;-0.50;99.90
13464;DHT22;6804;48.774;9.174;2022-12-18T11:01:46;-0.40;99.90
13464;DHT22;6804;48.774;9.174;2022-12-18T11:04:18;-0.50;99.90
13464;DHT22;6804;48.774;9.174;2022-12-18T11:07:02;-0.40;99.90
13464;DHT22;6804;48.774;9.174;2022-12-18T11:09:31;-0.30;99.90
13464;DHT22;6804;48.774;9.174;2022-12-18T11:12:01;-0.20;99.90
13464;DHT22;6804;48.774;9.174;2022-12-18T11:14:35;-0.30;99.90
13464;DHT22;6804;48.774;9.174;2022-12-18T11:17:25;-0.20;99.90
13464;DHT22;6804;48.774;9.174;2022-12-18T11:19:56;-0.40;99.90
13464;DHT22;6804;48.774;9.174;2022-12-18T11:22:26;-0.60;99.90
13464;DHT22;6804;48.774;9.174;2022-12-18T11:24:56;-0.70;99.90
13464;DHT22;6804;48.774;9.174;2022-12-18T11:27:28;-0.90;99.90
13464;DHT22;6804;48.774;9.174;2022-12-18T11:30:08;-1.20;99.90
13464;DHT22;6804;48.774;9.174;2022-12-18T11:32:37;-1.10;99.90
13464;DHT22;6804;48.774;9.174;2022-12-18T11:35:14;-1.00;99.90
13464;DHT22;6804;48.774;9.174;2022-12-18T11:37:48;-0.80;99.90
13464;DHT22;6804;48.774;9.174;2022-12-18T11:40:22;-0.60;99.90
13464;DHT22;6804;48.774;9.174;2022-12-18T11:42:56;-0.40;99.90
13464;DHT22;6804;48.774;9.174;2022-12-18T11:45:28;-0.20;99.90
13464;DHT22;6804;48.774;9.174;2022-12-18T11:48:03;0.00;99.90
13464;DHT22;6804;48.774;9.174;2022-12-18T11:50:38;0.20;99.90
13464;DHT22;6804;48.774;9.174;2022-12-18T11:53:14;0.10;99.90
13464;DHT22;6804;48.774;9.174;2022-12-18T11:55:54;-0.10;99.90
13464;DHT22;6804;48.774;9.174;2022-12-18T11:58:29;0.00;99.90
13464;DHT22;6804;48.774;9.174;2022-12-18T12:01:15;0.00;99.90
13464;DHT22;6804;48.774;9.174;2022-12-18T12:04:01;0.00;99.90
13464;DHT22;6804;48.774;9.174;2022-12-18T12:06:35;0.10;99.90
13464;DHT22;6804;48.774;9.174;2022-12-18T12:09:13;0.30;99.90
13464;DHT22;6804;48.774;9.174;2022-12-18T12:11:53;0.20;99.90
13464;DHT22;6804;48.774;9.174;2022-12-18T12:14:43;-0.10;99.90
13464;DHT22;6804;48.774;9.174;2022-12-18T12:17:19;-0.20;99.90
13464;DHT22;6804;48.774;9.174;2022-12-18T12:19:57;-0.20;99.90
13464;DHT22;6804;48.774;9.174;2022-12-18T12:22:36;-0.30;99.90
13464;DHT22;6804;48.774;9.174;2022-12-18T12:25:21;-0.50;99.90
13464;DHT22;6804;48.774;9.174;2022-12-18T12:28:01;-0.70;99.90
13464;DHT22;6804;48.774;9.174;2022-12-18T12:30:35;-0.70;99.90
13464;DHT22;6804;48.774;9.174;2022-12-18T12:33:17;-0.60;99.90
13464;DHT22;6804;48.774;9.174;2022-12-18T12:35:59;-0.60;99.90
13464;DHT22;6804;48.774;9.174;2022-12-18T12:38:41;-0.60;99.90
13464;DHT22;6804;48.774;9.174;2022-12-18T12:41:15;-0.70;99.90
13464;DHT22;6804;48.774;9.174;2022-12-18T12:44:00;-0.70;99.90
13464;DHT22;6804;48.774;9.174;2022-12-18T12:46:32;-0.60;99.90
13464;DHT22;6804;48.774;9.174;2022-12-18T12:49:09;-0.60;99.90
13464;DHT22;6804;48.774;9.174;2022-12-18T12:51:41;-0.60;99.90
13464;DHT22;6804;48.774;9.174;2022-12-18T12:54:15;-0.40;99.90
13464;DHT22;6804;48.774;9.174;2022-12-18T12:56:51;-0.40;99.90
13464;DHT22;6804;48.774;9.174;2022-12-18T12:59:34;-0.20;99.90
13464;DHT22;6804;48.774;9.174;2022-12-18T13:02:20;0.00;99.90
13464;DHT22;6804;48.774;9.174;2022-12-18T13:04:56;0.30;99.90
13464;DHT22;6804;48.774;9.174;2022-12-18T13:07:32;0.60;99.90
13464;DHT22;6804;48.774;9.174;2022-12-18T13:10:34;0.80;99.90
13464;DHT22;6804;48.774;9.174;2022-12-18T13:13:06;1.00;99.90
13464;DHT22;6804;48.774;9.174;2022-12-18T13:15:38;1.20;99.90
13464;DHT22;6804;48.774;9.174;2022-12-18T13:18:14;1.40;99.90
13464;DHT22;6804;48.774;9.174;2022-12-18T13:20:44;1.50;99.90
13464;DHT22;6804;48.774;9.174;2022-12-18T13:23:33;1.60;99.90
13464;DHT22;6804;48.774;9.174;2022-12-18T13:26:29;1.70;99.90
13464;DHT22;6804;48.774;9.174;2022-12-18T13:29:00;1.70;99.90
13464;DHT22;6804;48.774;9.174;2022-12-18T13:34:35;1.80;99.90
13464;DHT22;6804;48.774;9.174;2022-12-18T13:37:40;1.80;99.90
13464;DHT22;6804;48.774;9.174;2022-12-18T13:43:35;1.90;99.90
13464;DHT22;6804;48.774;9.174;2022-12-18T13:46:18;2.00;99.90
13464;DHT22;6804;48.774;9.174;2022-12-18T13:48:52;1.90;99.90
13464;DHT22;6804;48.774;9.174;2022-12-18T13:51:24;1.90;99.90
13464;DHT22;6804;48.774;9.174;2022-12-18T13:53:58;1.90;99.90
13464;DHT22;6804;48.774;9.174;2022-12-18T13:56:27;1.90;99.90
13464;DHT22;6804;48.774;9.174;2022-12-18T13:59:11;1.90;99.90
13464;DHT22;6804;48.774;9.174;2022-12-18T14:01:51;1.90;99.90
13464;DHT22;6804;48.774;9.174;2022-12-18T14:04:21;1.90;99.90
13464;DHT22;6804;48.774;9.174;2022-12-18T14:06:57;1.80;99.90
13464;DHT22;6804;48.774;9.174;2022-12-18T14:09:30;1.80;99.90
13464;DHT22;6804;48.774;9.174;2022-12-18T14:11:58;1.70;99.90
13464;DHT22;6804;48.774;9.174;2022-12-18T14:14:47;1.40;99.90
13464;DHT22;6804;48.774;9.174;2022-12-18T14:17:18;1.20;99.90
13464;DHT22;6804;48.774;9.174;2022-12-18T14:19:50;1.10;99.90
13464;DHT22;6804;48.774;9.174;2022-12-18T14:22:20;0.90;99.90
13464;DHT22;6804;48.774;9.174;2022-12-18T14:25:10;0.80;99.90
13464;DHT22;6804;48.774;9.174;2022-12-18T14:27:43;0.50;99.90
13464;DHT22;6804;48.774;9.174;2022-12-18T14:30:29;0.40;99.90
13464;DHT22;6804;48.774;9.174;2022-12-18T14:33:02;0.40;99.90
13464;DHT22;6804;48.774;9.174;2022-12-18T14:35:30;0.40;99.90
13464;DHT22;6804;48.774;9.174;2022-12-18T14:38:23;0.50;99.90
13464;DHT22;6804;48.774;9.174;2022-12-18T14:41:01;0.60;99.90
13464;DHT22;6804;48.774;9.174;2022-12-18T14:43:31;0.70;99.90
13464;DHT22;6804;48.774;9.174;2022-12-18T14:45:59;0.80;99.90
13464;DHT22;6804;48.774;9.174;2022-12-18T14:48:41;0.90;99.90
13464;DHT22;6804;48.774;9.174;2022-12-18T14:51:18;1.00;99.90
13464;DHT22;6804;48.774;9.174;2022-12-18T14:53:58;1.00;99.90
13464;DHT22;6804;48.774;9.174;2022-12-18T14:56:30;0.90;99.90
13464;DHT22;6804;48.774;9.174;2022-12-18T14:59:01;0.90;99.90
13464;DHT22;6804;48.774;9.174;2022-12-18T15:01:31;0.80;99.90
13464;DHT22;6804;48.774;9.174;2022-12-18T15:04:02;0.80;99.90
13464;DHT22;6804;48.774;9.174;2022-12-18T15:06:32;0.80;99.90
13464;DHT22;6804;48.774;9.174;2022-12-18T15:09:05;0.80;99.90
13464;DHT22;6804;48.774;9.174;2022-12-18T15:11:45;0.80;99.90
13464;DHT22;6804;48.774;9.174;2022-12-18T15:14:32;0.90;99.90
13464;DHT22;6804;48.774;9.174;2022-12-18T15:17:03;0.90;99.90
13464;DHT22;6804;48.774;9.174;2022-12-18T15:19:39;1.00;99.90
13464;DHT22;6804;48.774;9.174;2022-12-18T15:22:20;0.90;99.90
13464;DHT22;6804;48.774;9.174;2022-12-18T15:24:50;1.00;99.90
13464;DHT22;6804;48.774;9.174;2022-12-18T15:27:23;1.00;99.90
13464;DHT22;6804;48.774;9.174;2022-12-18T15:30:17;0.90;99.90
13464;DHT22;6804;48.774;9.174;2022-12-18T15:32:45;0.90;99.90
13464;DHT22;6804;48.774;9.174;2022-12-18T15:35:17;0.90;99.90
13464;DHT22;6804;48.774;9.174;2022-12-18T15:37:46;0.90;99.90
13464;DHT22;6804;48.774;9.174;2022-12-18T15:40:14;0.90;99.90
13464;DHT22;6804;48.774;9.174;2022-12-18T15:42:47;0.80;99.90
13464;DHT22;6804;48.774;9.174;2022-12-18T15:45:32;0.80;99.90
13464;DHT22;6804;48.774;9.174;2022-12-18T15:47:59;0.70;99.90
13464;DHT22;6804;48.774;9.174;2022-12-18T15:50:31;0.70;99.90
13464;DHT22;6804;48.774;9.174;2022-12-18T15:52:58;0.70;99.90
13464;DHT22;6804;48.774;9.174;2022-12-18T15:55:29;0.80;99.90
13464;DHT22;6804;48.774;9.174;2022-12-18T15:58:13;0.70;99.90
13464;DHT22;6804;48.774;9.174;2022-12-18T16:00:41;0.70;99.90
13464;DHT22;6804;48.774;9.174;2022-12-18T16:03:08;0.70;99.90
13464;DHT22;6804;48.774;9.174;2022-12-18T16:05:45;0.60;99.90
13464;DHT22;6804;48.774;9.174;2022-12-18T16:08:12;0.60;99.90
13464;DHT22;6804;48.774;9.174;2022-12-18T16:10:42;0.50;99.90
13464;DHT22;6804;48.774;9.174;2022-12-18T16:13:11;0.60;99.90
13464;DHT22;6804;48.774;9.174;2022-12-18T16:15:39;0.50;99.90
13464;DHT22;6804;48.774;9.174;2022-12-18T16:18:07;0.60;99.90
13464;DHT22;6804;48.774;9.174;2022-12-18T16:20:35;0.50;99.90
13464;DHT22;6804;48.774;9.174;2022-12-18T16:23:04;0.30;99.90
13464;DHT22;6804;48.774;9.174;2022-12-18T16:25:34;0.20;99.90
13464;DHT22;6804;48.774;9.174;2022-12-18T16:28:03;0.10;99.90
13464;DHT22;6804;48.774;9.174;2022-12-18T16:30:31;0.10;99.90
13464;DHT22;6804;48.774;9.174;2022-12-18T16:32:59;0.10;99.90